TFM - Tactical Decision Aid
ID: Runway Winds: CIG/VIS Threshold:

KMDW - Chicago/Midway Intl, IL, US

Updated at: 0101 UTC 12 May 2021
Latest TAF at: 2320 UTC 11 May 2021

TAF Board

Time0053Z 12/02Z 12/03Z 12/04Z 12/05Z 12/06Z 12/07Z 12/08Z 12/09Z 12/10Z 12/11Z 12/12Z 12/13Z 12/14Z>>
Type OBS PRVL PRVL PRVL PRVL PRVL PRVL PRVL PRVL PRVL PRVL PRVL PRVL PRVL
VIS 10 >6 >6 >6 >6 >6 >6 >6 >6 >6 >6 >6 >6 >6
CIG -- -- -- -- -- -- -- -- -- -- -- -- -- --
Cover FEW FEW FEW FEW FEW FEW FEW FEW FEW FEW FEW FEW FEW FEW
FltCat VFR VFR VFR VFR VFR VFR VFR VFR VFR VFR VFR VFR VFR VFR
WX -- -- -- -- -- -- -- -- -- -- -- -- -- --
WDir 40 10 10 10 10 10 10 10 10 10 10 10 10 10
WSpd 6 4 4 4 4 4 4 4 4 4 4 4 4 4
WGst -- -- -- -- -- -- -- -- -- -- -- -- -- --

TDA Impact Legend

  None Marginal Slight Moderate High
Visibility (sm) >5 3≤X≤5 2≤X<3 0.75≤X<2 <0.75
Ceiling (100 ft) >30 10≤X≤30 6≤X<10 3≤X<6 <3
Wind Speed (kt) <15 15≤X<25 25≤X<30 ≥30
Wind Gust (kt) <15 15≤X<25 25≤X<35 ≥35
Weather No Wx Reported VCTS -TS,-FZRA TS,FZRA +TS,+FZRA
TAF
KMDW 112320Z 1200/1306 05011KT P6SM FEW060 SCT250
  FM120100 01004KT P6SM FEW250
  FM121800 05010KT P6SM FEW070
  FM130100 12004KT P6SM FEW250


METAR
KMDW 120053Z 04006KT 10SM FEW250 09/M04 A3038 RMK AO2 SLP292 T00891039 $
KMDW 112353Z 04009KT 10SM FEW050 BKN250 10/M04 A3038 RMK AO2 SLP292 T01001044 10117 20100 53009 $
KMDW 112253Z 05012KT 10SM FEW050 BKN250 11/M03 A3037 RMK AO2 SLP289 T01061033 $
KMDW 112153Z 05015G20KT 10SM FEW050 SCT250 11/M03 A3036 RMK AO2 SLP285 T01061028 $

Radar Display
Forecast Discussion